Current Weather

Sheboygan County Meml

Sheboygan, Wisconsin (KSBM)

Report from: Wednesday, April 24, 2024 11:53 PM CDT
Current time: Thursday, April 25, 2024 12:12 AM CDT

Nearby weather – Weather history – Daily summaries
Weather forecast

Temperature-3.3°C (26.1°F)
Dew point-4.4°C (24.1°F)
Winds Calm
Visibility10 mi. (16.1 km)
Clouds Sky clear
Altimeter30.31 in.Hg (1026 mB)
Relative humidity92 %
Density altitude-2,660 ft. (-811 m)
Sea-level pressure102.7 kPa (1027 mB, 30.33 in.Hg)
Remarks Fully automated report
System requires maintenance
Automated weather observing station with precipitation discriminator
Flight conditions Visual Meteorological Conditions
Raw dataKSBM 250453Z AUTO 00000KT 10SM CLR M03/M04 A3031 RMK AO2 SLP272 T10331044 $
An error has occurred. This application may no longer respond until reloaded. Reload 🗙